Time;durP1;ratioP1;P1;durP2;ratioP2;P2;SDS_P1;SDS_P2;PMS_P1;PMS_P2;Temp;Humidity;BMP_temperature;BMP_pressure;BME280_temperature;BME280_humidity;BME280_pressure;Samples;Min_cycle;Max_cycle;Signal;HPM_P1;HPM_P2
2022/07/26 00:01:03;;;;;;;7.60;5.05;;;;;;;21.13;54.12;98250.36;2172546;81;21360;-86
2022/07/26 00:04:04;;;;;;;10.68;5.65;;;;;;;21.20;53.73;98247.86;2173584;81;20917;-85
2022/07/26 00:07:22;;;;;;;10.03;4.58;;;;;;;21.17;53.55;98246.66;2173515;82;20897;-86
2022/07/26 00:10:23;;;;;;;16.20;4.85;;;;;;;21.14;53.78;98244.12;2173597;81;20910;-87
2022/07/26 00:13:23;;;;;;;6.05;4.62;;;;;;;21.02;53.97;98250.79;2173634;81;20944;-85
2022/07/26 00:16:23;;;;;;;4.95;4.53;;;;;;;20.98;53.90;98246.06;2173569;82;20901;-86
2022/07/26 00:19:24;;;;;;;7.90;4.47;;;;;;;20.98;53.97;98255.81;2173979;81;20932;-86
2022/07/26 00:22:33;;;;;;;6.60;4.37;;;;;;;20.96;53.98;98252.36;2173694;82;20972;-87
2022/07/26 00:25:34;;;;;;;8.33;4.45;;;;;;;20.98;54.05;98252.70;2173569;81;20920;-86
2022/07/26 00:28:34;;;;;;;6.65;4.58;;;;;;;21.02;53.92;98252.12;2173736;81;21261;-86
2022/07/26 00:31:35;;;;;;;10.05;4.95;;;;;;;20.91;54.07;98245.04;2173467;81;20909;-86
2022/07/26 00:34:35;;;;;;;4.60;4.20;;;;;;;20.86;54.12;98239.05;2173528;81;20914;-86
2022/07/26 00:37:35;;;;;;;5.10;4.55;;;;;;;20.83;54.38;98237.38;2173706;81;20945;-86
2022/07/26 00:40:36;;;;;;;7.17;4.78;;;;;;;20.83;54.52;98237.38;2173857;81;20870;-86
2022/07/26 00:43:36;;;;;;;5.47;4.97;;;;;;;20.74;54.68;98231.08;2173514;81;21305;-86
2022/07/26 00:46:37;;;;;;;7.60;4.80;;;;;;;20.76;54.88;98229.23;2173479;81;20898;-86
2022/07/26 00:49:37;;;;;;;16.23;5.20;;;;;;;20.82;54.73;98236.98;2173993;81;20905;-87
2022/07/26 00:52:37;;;;;;;8.48;4.70;;;;;;;20.84;54.68;98240.90;2173339;81;21460;-87
2022/07/26 00:55:38;;;;;;;5.37;4.87;;;;;;;20.85;54.82;98232.88;2173640;81;20929;-87
2022/07/26 00:58:38;;;;;;;8.88;5.28;;;;;;;20.87;54.75;98225.73;2173263;81;20949;-87
2022/07/26 01:01:39;;;;;;;5.00;4.60;;;;;;;20.84;54.63;98219.68;2170831;81;20957;-86
2022/07/26 01:04:39;;;;;;;6.00;5.17;;;;;;;20.73;55.13;98220.06;2171276;81;20945;-87
2022/07/26 01:07:39;;;;;;;6.28;4.80;;;;;;;20.76;55.04;98228.36;2171109;81;20913;-89
2022/07/26 01:10:42;;;;;;;7.28;4.65;;;;;;;20.72;55.12;98227.63;2171096;82;20978;-85
2022/07/26 01:13:40;;;;;;;5.95;5.03;;;;;;;20.75;55.22;98224.84;2171338;81;20921;-86
2022/07/26 01:16:42;;;;;;;10.45;5.25;;;;;;;20.71;55.31;98216.61;2171429;82;20873;-87
2022/07/26 01:19:41;;;;;;;10.85;4.87;;;;;;;20.71;55.42;98213.95;2171285;82;20949;-86
2022/07/26 01:22:41;;;;;;;5.65;4.97;;;;;;;20.73;55.32;98208.59;2171018;81;21319;-86
2022/07/26 01:25:42;;;;;;;5.53;4.92;;;;;;;20.71;55.37;98199.38;2171223;81;20953;-87
2022/07/26 01:28:43;;;;;;;12.35;4.65;;;;;;;20.66;55.48;98189.41;2171257;81;20913;-85
2022/07/26 01:31:43;;;;;;;8.08;5.58;;;;;;;20.69;55.88;98195.91;2171127;81;21294;-86
2022/07/26 01:34:43;;;;;;;7.58;4.95;;;;;;;20.67;55.75;98185.83;2171007;81;20966;-86
2022/07/26 01:37:43;;;;;;;7.28;5.17;;;;;;;20.68;55.61;98183.58;2171182;81;20917;-86
2022/07/26 01:40:44;;;;;;;7.37;5.45;;;;;;;20.67;55.67;98181.39;2170910;81;20905;-85
2022/07/26 01:43:44;;;;;;;5.30;4.80;;;;;;;20.66;55.91;98184.97;2171220;81;20989;-86
2022/07/26 01:46:45;;;;;;;5.78;5.20;;;;;;;20.35;55.24;98173.33;2170945;81;20925;-85
2022/07/26 01:49:45;;;;;;;7.22;4.80;;;;;;;19.80;55.98;98158.58;2170966;81;20921;-85
2022/07/26 01:52:45;;;;;;;5.72;4.75;;;;;;;19.36;57.15;98154.36;2171127;81;21253;-86
2022/07/26 01:55:49;;;;;;;7.87;4.85;;;;;;;19.01;58.54;98148.90;2171535;81;21336;-86
2022/07/26 01:58:49;;;;;;;9.45;5.15;;;;;;;18.77;59.16;98148.37;2172154;81;20893;-85
2022/07/26 02:01:50;;;;;;;9.90;6.00;;;;;;;18.59;59.73;98150.25;2171918;81;21108;-86
2022/07/26 02:05:00;;;;;;;7.10;5.42;;;;;;;18.45;60.41;98150.22;2171835;81;20882;-86
2022/07/26 02:08:00;;;;;;;5.67;5.17;;;;;;;18.33;60.90;98149.73;2171866;81;20901;-86
2022/07/26 02:11:00;;;;;;;9.88;5.50;;;;;;;18.23;61.42;98152.23;2171613;81;20917;-86
2022/07/26 02:14:00;;;;;;;5.65;5.03;;;;;;;18.14;61.74;98152.89;2171732;81;21368;-85
2022/07/26 02:17:01;;;;;;;7.97;4.85;;;;;;;18.06;62.30;98150.92;2171520;81;20959;-86
2022/07/26 02:20:01;;;;;;;10.60;5.50;;;;;;;17.98;62.42;98146.32;2171902;81;20889;-85
2022/07/26 02:23:02;;;;;;;5.53;5.05;;;;;;;17.96;62.62;98151.23;2171399;81;20977;-85
2022/07/26 02:26:02;;;;;;;12.35;5.87;;;;;;;17.94;63.17;98143.81;2172100;81;20944;-86
2022/07/26 02:29:02;;;;;;;6.05;5.22;;;;;;;17.90;63.33;98151.41;2172302;81;20937;-86
2022/07/26 02:32:03;;;;;;;6.20;5.60;;;;;;;17.88;63.58;98150.14;2172221;81;20913;-85
2022/07/26 02:35:03;;;;;;;6.83;4.70;;;;;;;17.86;63.83;98148.45;2171768;81;21246;-86
2022/07/26 02:38:04;;;;;;;10.23;5.20;;;;;;;17.85;64.11;98145.39;2171523;81;20937;-86
2022/07/26 02:41:05;;;;;;;12.55;5.40;;;;;;;17.79;64.22;98145.98;2171710;81;21210;-86
2022/07/26 02:44:05;;;;;;;6.03;5.42;;;;;;;17.74;64.46;98147.88;2171185;80;21277;-85
2022/07/26 02:47:05;;;;;;;5.70;5.20;;;;;;;17.72;64.23;98144.42;2171122;81;20909;-86
2022/07/26 02:50:05;;;;;;;6.05;5.45;;;;;;;17.68;65.02;98142.77;2171363;81;20913;-86
2022/07/26 02:53:06;;;;;;;40.63;7.95;;;;;;;17.65;65.08;98144.60;2170958;81;21052;-87
2022/07/26 02:56:06;;;;;;;6.67;5.37;;;;;;;17.62;64.89;98135.00;2171509;81;20981;-85
2022/07/26 02:59:07;;;;;;;6.40;5.33;;;;;;;17.58;65.50;98134.67;2171632;82;20953;-86
2022/07/26 03:02:07;;;;;;;6.58;5.92;;;;;;;17.55;65.67;98138.71;2170553;81;21344;-86
2022/07/26 03:05:07;;;;;;;6.33;5.45;;;;;;;17.51;65.81;98139.25;2170922;81;21010;-86
2022/07/26 03:08:08;;;;;;;6.62;5.92;;;;;;;17.48;65.72;98147.70;2171155;81;20945;-87
2022/07/26 03:11:08;;;;;;;5.83;5.28;;;;;;;17.45;66.15;98141.19;2170896;81;20917;-86
2022/07/26 03:14:08;;;;;;;5.97;5.33;;;;;;;17.42;66.29;98134.22;2170874;81;20996;-87
2022/07/26 03:17:09;;;;;;;6.62;5.70;;;;;;;17.44;66.49;98126.27;2170742;81;20981;-86
2022/07/26 03:20:09;;;;;;;6.70;6.00;;;;;;;17.41;66.82;98122.39;2171279;81;20973;-85
2022/07/26 03:23:10;;;;;;;7.70;5.60;;;;;;;17.43;66.71;98118.80;2171104;81;21364;-86
2022/07/26 03:26:10;;;;;;;6.78;5.83;;;;;;;17.46;66.65;98116.08;2170986;81;20921;-85
2022/07/26 03:29:10;;;;;;;9.45;5.22;;;;;;;17.50;66.69;98107.17;2171332;82;20905;-87
2022/07/26 03:32:11;;;;;;;6.12;5.53;;;;;;;17.55;66.81;98103.09;2171252;81;20969;-86
2022/07/26 03:35:11;;;;;;;7.08;5.05;;;;;;;17.57;66.69;98096.00;2171111;81;20905;-87
2022/07/26 03:38:12;;;;;;;7.67;5.65;;;;;;;17.61;66.92;98088.40;2171289;82;20929;-87
2022/07/26 03:41:12;;;;;;;13.13;6.55;;;;;;;17.67;67.37;98085.63;2171294;81;20949;-85
2022/07/26 03:44:12;;;;;;;6.97;5.35;;;;;;;18.59;67.22;98089.45;2171090;81;20989;-85
2022/07/26 03:47:13;;;;;;;10.38;6.17;;;;;;;18.62;65.23;98084.11;2170967;82;20933;-85
2022/07/26 03:50:13;;;;;;;9.50;5.40;;;;;;;19.08;66.27;98085.66;2170679;82;20992;-84
2022/07/26 03:53:14;;;;;;;17.20;6.33;;;;;;;19.69;64.44;98084.83;2170158;81;21028;-84
2022/07/26 03:56:32;;;;;;;5.95;5.45;;;;;;;20.18;62.93;98083.01;2169950;81;20976;-83
2022/07/26 03:59:33;;;;;;;10.13;6.17;;;;;;;20.51;61.37;98078.66;2169830;82;20952;-83
2022/07/26 04:02:33;;;;;;;6.42;5.65;;;;;;;20.65;60.75;98077.17;2170793;81;21424;-82
2022/07/26 04:05:33;;;;;;;8.73;5.17;;;;;;;20.83;60.36;98071.61;2171995;81;20925;-84
2022/07/26 04:08:34;;;;;;;5.72;5.12;;;;;;;21.11;59.70;98071.77;2172572;82;20953;-83
2022/07/26 04:11:34;;;;;;;5.72;5.10;;;;;;;21.24;58.53;98067.69;2172917;82;20925;-83
2022/07/26 04:14:35;;;;;;;6.75;4.97;;;;;;;21.25;58.50;98077.38;2173378;81;20960;-85
2022/07/26 04:17:35;;;;;;;6.50;5.05;;;;;;;21.22;58.42;98077.48;2172790;81;21281;-82
2022/07/26 04:20:35;;;;;;;9.20;5.30;;;;;;;21.35;58.40;98081.36;2172485;81;20985;-83
2022/07/26 04:23:36;;;;;;;16.95;6.70;;;;;;;21.54;57.77;98078.76;2171532;81;21011;-81
2022/07/26 04:26:36;;;;;;;11.68;5.15;;;;;;;21.54;57.32;98083.60;2171934;82;20897;-84
2022/07/26 04:29:37;;;;;;;8.45;5.17;;;;;;;21.49;57.10;98078.96;2172456;81;21004;-83
2022/07/26 04:32:37;;;;;;;8.18;5.22;;;;;;;21.48;57.61;98079.89;2172981;81;21281;-84
2022/07/26 04:35:37;;;;;;;11.68;5.80;;;;;;;21.57;56.87;98071.98;2172893;81;20937;-84
2022/07/26 04:38:38;;;;;;;11.85;5.80;;;;;;;21.59;57.01;98072.31;2172534;81;20952;-84
2022/07/26 04:41:38;;;;;;;15.38;5.80;;;;;;;21.76;56.87;98070.72;2172769;81;20964;-84
2022/07/26 04:44:39;;;;;;;7.45;5.15;;;;;;;21.92;56.53;98071.75;2172935;82;21372;-84
2022/07/26 04:47:40;;;;;;;20.75;6.08;;;;;;;22.07;55.94;98070.20;2172655;81;20960;-84
2022/07/26 04:50:39;;;;;;;10.80;4.95;;;;;;;22.17;55.85;98071.50;2171590;81;20941;-84
2022/07/26 04:53:40;;;;;;;11.73;5.58;;;;;;;22.37;55.53;98062.11;2171056;81;21012;-83
2022/07/26 04:56:40;;;;;;;14.53;6.08;;;;;;;22.49;55.20;98067.30;2171532;81;21439;-81
2022/07/26 04:59:41;;;;;;;9.18;5.50;;;;;;;22.72;55.14;98063.55;2171421;81;20905;-82
2022/07/26 05:02:41;;;;;;;15.83;5.45;;;;;;;22.85;54.54;98061.56;2170841;81;21012;-82
2022/07/26 05:05:42;;;;;;;14.28;5.30;;;;;;;23.15;54.55;98066.27;2170653;81;20905;-84
2022/07/26 05:08:45;;;;;;;11.53;5.28;;;;;;;23.57;54.11;98065.91;2170852;81;21094;-83
2022/07/26 05:11:45;;;;;;;14.00;5.70;;;;;;;24.07;53.17;98064.98;2170390;82;20905;-84
2022/07/26 05:14:45;;;;;;;8.63;5.50;;;;;;;24.37;52.44;98069.15;2170613;81;20932;-81
2022/07/26 05:17:46;;;;;;;21.10;6.10;;;;;;;24.55;51.56;98062.77;2170973;81;20973;-81
2022/07/26 05:20:46;;;;;;;7.40;5.05;;;;;;;24.74;50.89;98075.45;2170949;82;20897;-79
2022/07/26 05:23:47;;;;;;;16.77;5.87;;;;;;;24.78;50.00;98079.66;2170841;82;21349;-82
2022/07/26 05:26:47;;;;;;;8.88;5.50;;;;;;;24.97;49.88;98077.26;2171245;81;20929;-83
2022/07/26 05:29:48;;;;;;;21.37;6.20;;;;;;;25.15;49.35;98080.72;2171757;81;20925;-83
2022/07/26 05:32:48;;;;;;;14.15;5.33;;;;;;;25.33;49.61;98085.83;2171537;81;20953;-84
2022/07/26 05:35:48;;;;;;;7.08;4.80;;;;;;;25.64;48.64;98082.16;2172115;81;21022;-83
2022/07/26 05:38:49;;;;;;;6.97;4.90;;;;;;;25.81;48.35;98076.28;2172673;82;20929;-82
2022/07/26 05:41:49;;;;;;;5.10;4.65;;;;;;;25.75;47.88;98074.84;2171987;81;20971;-81
2022/07/26 05:44:50;;;;;;;12.75;5.47;;;;;;;25.69;48.25;98080.58;2172030;81;20917;-81
2022/07/26 05:47:51;;;;;;;14.33;6.03;;;;;;;25.67;48.43;98076.66;2172893;81;20921;-83
2022/07/26 05:50:52;;;;;;;8.38;5.05;;;;;;;25.86;48.24;98075.05;2173830;82;20956;-83
2022/07/26 05:53:52;;;;;;;12.30;6.05;;;;;;;25.98;47.75;98072.94;2173432;81;20999;-83
2022/07/26 05:56:53;;;;;;;25.25;6.25;;;;;;;25.98;48.03;98072.94;2173106;81;20953;-79
2022/07/26 05:59:53;;;;;;;11.70;5.50;;;;;;;26.01;48.26;98076.80;2173243;81;20925;-83
2022/07/26 06:02:53;;;;;;;9.45;5.50;;;;;;;26.02;48.18;98078.52;2171792;81;20969;-81
2022/07/26 06:05:54;;;;;;;8.95;5.37;;;;;;;26.07;48.17;98081.37;2170801;81;20965;-81
2022/07/26 06:08:54;;;;;;;23.05;5.95;;;;;;;26.20;48.10;98083.17;2169866;82;20897;-83
2022/07/26 06:11:55;;;;;;;15.68;6.20;;;;;;;26.34;48.10;98080.99;2169981;82;21256;-82
2022/07/26 06:14:55;;;;;;;7.72;5.25;;;;;;;26.43;47.83;98086.23;2169517;81;20901;-83
2022/07/26 06:17:55;;;;;;;7.92;5.37;;;;;;;26.46;47.73;98085.55;2169513;81;20937;-84
2022/07/26 06:20:56;;;;;;;16.02;5.50;;;;;;;26.50;47.29;98088.41;2169465;81;20997;-81
2022/07/26 06:23:56;;;;;;;10.18;5.50;;;;;;;26.31;47.89;98098.55;2170033;81;20988;-81
2022/07/26 06:26:57;;;;;;;35.48;6.97;;;;;;;26.40;47.85;98104.68;2170063;81;20937;-81
2022/07/26 06:29:57;;;;;;;32.15;7.25;;;;;;;26.45;47.83;98091.86;2170373;81;21317;-83
2022/07/26 06:32:57;;;;;;;29.90;6.50;;;;;;;26.59;47.74;98095.84;2169612;81;20956;-83
2022/07/26 06:35:58;;;;;;;19.67;6.62;;;;;;;26.74;47.78;98098.48;2170235;82;20882;-83
2022/07/26 06:38:58;;;;;;;29.63;6.58;;;;;;;26.85;47.68;98089.27;2170179;81;20933;-83
2022/07/26 06:41:59;;;;;;;108.10;14.13;;;;;;;26.95;47.71;98092.60;2170053;81;21632;-85
2022/07/26 06:44:59;;;;;;;119.50;14.38;;;;;;;27.07;47.79;98095.45;2169246;81;20929;-82
2022/07/26 06:48:02;;;;;;;34.50;7.70;;;;;;;27.14;47.31;98094.09;2169731;81;20929;-83
2022/07/26 06:51:03;;;;;;;16.82;5.50;;;;;;;27.24;47.29;98101.40;2161439;82;21394;-82
2022/07/26 06:54:04;;;;;;;18.32;5.80;;;;;;;27.37;46.48;98103.25;2170248;81;20992;-83
2022/07/26 06:57:03;;;;;;;26.77;6.65;;;;;;;27.40;45.86;98103.90;2170250;81;20932;-82
2022/07/26 07:00:03;;;;;;;10.23;5.12;;;;;;;27.61;46.10;98097.58;2170094;81;21127;-79
2022/07/26 07:03:03;;;;;;;5.47;4.97;;;;;;;27.94;45.07;98102.45;2169962;81;20957;-80
2022/07/26 07:06:04;;;;;;;7.50;4.90;;;;;;;28.15;44.36;98105.43;2170815;80;21400;-80
2022/07/26 07:09:04;;;;;;;7.65;5.45;;;;;;;28.37;42.79;98111.49;2170606;81;20889;-80
2022/07/26 07:12:05;;;;;;;8.30;5.87;;;;;;;28.41;42.29;98117.87;2169691;81;20924;-80
2022/07/26 07:15:05;;;;;;;12.65;6.30;;;;;;;28.28;42.30;98120.20;2169627;81;20952;-80
2022/07/26 07:18:05;;;;;;;8.60;5.58;;;;;;;28.37;42.43;98128.94;2169110;81;20902;-80
2022/07/26 07:21:06;;;;;;;10.80;6.17;;;;;;;28.32;41.69;98135.98;2168833;81;20988;-80
2022/07/26 07:24:06;;;;;;;7.17;6.28;;;;;;;28.36;40.71;98136.62;2168527;81;20984;-79
2022/07/26 07:27:13;;;;;;;9.33;6.45;;;;;;;28.29;41.60;98130.83;2169131;81;20993;-79
2022/07/26 07:30:15;;;;;;;13.35;7.17;;;;;;;28.40;41.44;98143.00;2168178;81;20901;-80
2022/07/26 07:33:14;;;;;;;6.80;6.10;;;;;;;28.35;41.23;98137.59;2170124;81;20941;-80
2022/07/26 07:36:14;;;;;;;11.90;6.15;;;;;;;28.33;41.25;98148.91;2170311;81;20893;-80
2022/07/26 07:39:14;;;;;;;10.50;5.97;;;;;;;27.87;41.02;98146.27;2170031;81;20917;-79
2022/07/26 07:42:15;;;;;;;9.25;6.50;;;;;;;27.79;40.88;98138.38;2169465;81;21017;-79
2022/07/26 07:45:16;;;;;;;12.03;6.55;;;;;;;27.75;41.39;98142.23;2170290;81;20948;-79
2022/07/26 07:48:17;;;;;;;7.72;5.90;;;;;;;27.69;41.49;98144.83;2170036;81;21531;-80
2022/07/26 07:51:17;;;;;;;12.90;6.35;;;;;;;27.76;41.86;98151.52;2169728;81;20878;-79
2022/07/26 07:54:18;;;;;;;7.53;5.72;;;;;;;27.52;41.00;98169.21;2170093;81;20977;-79
2022/07/26 07:57:19;;;;;;;9.58;6.17;;;;;;;27.33;41.50;98175.42;2168416;81;21328;-80
2022/07/26 08:00:19;;;;;;;60.78;10.10;;;;;;;27.10;42.30;98175.61;2168674;81;20964;-81
2022/07/26 08:03:19;;;;;;;7.85;5.70;;;;;;;27.11;42.58;98177.33;2169459;81;20977;-80
2022/07/26 08:06:19;;;;;;;8.95;6.05;;;;;;;27.21;42.52;98190.02;2169207;81;20890;-80
2022/07/26 08:09:20;;;;;;;10.72;6.87;;;;;;;27.31;42.94;98189.41;2170188;81;20913;-79
2022/07/26 08:12:20;;;;;;;9.33;6.53;;;;;;;27.41;42.65;98185.16;2169802;80;20933;-79
2022/07/26 08:15:22;;;;;;;7.60;6.65;;;;;;;27.23;42.58;98196.13;2168148;81;20933;-80
2022/07/26 08:18:21;;;;;;;8.58;6.35;;;;;;;27.29;42.79;98195.73;2169365;81;20915;-80
2022/07/26 08:21:21;;;;;;;11.80;7.12;;;;;;;27.32;42.53;98201.84;2169124;81;21400;-79
2022/07/26 08:24:22;;;;;;;16.62;6.72;;;;;;;27.08;42.31;98195.80;2169166;81;20985;-79
2022/07/26 08:27:22;;;;;;;7.45;5.90;;;;;;;27.09;43.13;98200.68;2169081;82;20929;-79
2022/07/26 08:30:24;;;;;;;14.07;5.87;;;;;;;27.23;43.22;98201.97;2159319;82;20943;-79
2022/07/26 08:33:25;;;;;;;8.23;5.78;;;;;;;27.32;43.49;98212.08;2167941;82;20878;-79
2022/07/26 08:36:25;;;;;;;8.45;6.17;;;;;;;27.33;42.50;98210.27;2167796;81;20889;-79
2022/07/26 08:39:26;;;;;;;10.05;6.45;;;;;;;27.39;42.77;98220.09;2167865;82;20972;-79
2022/07/26 08:42:26;;;;;;;8.63;5.83;;;;;;;27.59;42.36;98220.97;2168044;82;20902;-80
2022/07/26 08:45:26;;;;;;;9.05;6.37;;;;;;;27.79;42.00;98219.69;2168014;81;21304;-78
2022/07/26 08:48:27;;;;;;;9.40;6.05;;;;;;;27.99;41.05;98228.19;2168064;81;20925;-78
2022/07/26 08:51:27;;;;;;;9.73;6.05;;;;;;;28.09;41.24;98227.94;2169151;81;20901;-78
2022/07/26 08:54:28;;;;;;;9.58;6.85;;;;;;;28.26;41.04;98239.73;2169365;81;21012;-78
2022/07/26 08:57:28;;;;;;;10.35;5.90;;;;;;;27.98;40.97;98230.50;2169290;81;20957;-78
2022/07/26 09:00:28;;;;;;;12.43;5.87;;;;;;;27.99;41.05;98228.19;2169272;81;20929;-78
2022/07/26 09:03:30;;;;;;;6.35;5.03;;;;;;;28.26;40.42;98230.34;2169420;81;20993;-78
2022/07/26 09:06:29;;;;;;;8.63;5.37;;;;;;;28.53;41.24;98236.45;2169250;81;20945;-79
2022/07/26 09:09:30;;;;;;;9.83;6.00;;;;;;;28.53;41.24;98236.45;2168778;81;21700;-79
2022/07/26 09:12:30;;;;;;;9.90;5.75;;;;;;;28.47;40.73;98241.39;2168606;81;20905;-78
2022/07/26 09:15:30;;;;;;;5.55;5.03;;;;;;;28.31;41.12;98253.69;2169218;82;20957;-78
2022/07/26 09:18:31;;;;;;;10.30;5.70;;;;;;;28.32;40.36;98251.38;2169004;81;21292;-79
2022/07/26 09:21:31;;;;;;;11.03;5.72;;;;;;;28.44;40.29;98258.58;2169471;81;20945;-78
2022/07/26 09:24:32;;;;;;;7.08;5.78;;;;;;;28.55;39.78;98274.79;2169369;82;20977;-79
2022/07/26 09:27:32;;;;;;;8.40;5.22;;;;;;;28.22;40.59;98278.45;2169728;80;20964;-79
2022/07/26 09:30:32;;;;;;;27.00;6.95;;;;;;;28.10;40.54;98284.17;2168936;81;21381;-79
2022/07/26 09:33:35;;;;;;;11.88;5.70;;;;;;;28.03;41.26;98286.03;2160092;82;20921;-78
2022/07/26 09:36:35;;;;;;;9.58;6.83;;;;;;;27.95;42.28;98287.03;2168400;81;21373;-79
2022/07/26 09:39:36;;;;;;;23.38;6.90;;;;;;;28.00;43.03;98291.61;2168349;81;20917;-79
2022/07/26 09:42:36;;;;;;;11.15;6.28;;;;;;;27.83;43.20;98291.41;2168485;82;20980;-79
2022/07/26 09:45:36;;;;;;;11.60;6.87;;;;;;;27.71;44.03;98301.57;2168494;81;21415;-80
2022/07/26 09:48:40;;;;;;;9.38;6.35;;;;;;;27.67;44.27;98310.78;2168692;82;20917;-79
2022/07/26 09:51:37;;;;;;;10.18;7.30;;;;;;;27.61;44.59;98308.02;2168943;82;20881;-78
2022/07/26 09:54:38;;;;;;;9.08;7.62;;;;;;;27.29;45.49;98309.61;2168690;81;20972;-79
2022/07/26 09:57:38;;;;;;;10.03;8.10;;;;;;;27.25;46.31;98322.82;2168972;81;21312;-78
2022/07/26 10:00:38;;;;;;;11.45;7.45;;;;;;;27.16;46.85;98319.39;2170160;82;20921;-78
2022/07/26 10:03:39;;;;;;;9.73;8.48;;;;;;;27.11;47.50;98321.98;2170331;81;20961;-79
2022/07/26 10:06:39;;;;;;;11.65;8.85;;;;;;;26.83;47.87;98335.70;2169671;81;20970;-79
2022/07/26 10:09:40;;;;;;;9.95;8.98;;;;;;;26.60;48.79;98343.81;2169105;81;20961;-79
2022/07/26 10:12:45;;;;;;;13.10;8.85;;;;;;;26.90;48.89;98346.45;2169563;81;20940;-79
2022/07/26 10:15:40;;;;;;;9.75;8.23;;;;;;;27.06;48.21;98351.73;2170132;81;20953;-78
2022/07/26 10:18:41;;;;;;;12.35;9.93;;;;;;;27.21;48.40;98345.41;2168502;81;20926;-79
2022/07/26 10:21:42;;;;;;;9.83;8.93;;;;;;;27.12;48.15;98340.64;2169586;81;20976;-80
2022/07/26 10:24:42;;;;;;;13.70;8.78;;;;;;;26.93;48.83;98341.38;2170080;81;21217;-79
2022/07/26 10:27:42;;;;;;;12.60;9.65;;;;;;;26.64;49.41;98359.21;2167281;81;20965;-78
2022/07/26 10:30:42;;;;;;;22.25;13.25;;;;;;;26.55;49.46;98348.59;2170334;82;20925;-79
2022/07/26 10:33:43;;;;;;;14.87;11.08;;;;;;;26.41;49.94;98355.73;2167062;81;20996;-79
2022/07/26 10:36:43;;;;;;;17.35;11.68;;;;;;;26.25;50.40;98358.42;2169838;82;20921;-79
2022/07/26 10:39:44;;;;;;;13.13;11.93;;;;;;;25.82;51.60;98371.59;2168891;81;20980;-79
2022/07/26 10:42:44;;;;;;;15.95;12.28;;;;;;;25.67;52.20;98389.84;2169178;81;20941;-80
2022/07/26 10:45:44;;;;;;;19.82;11.30;;;;;;;25.54;52.40;98376.28;2169904;81;20921;-79
2022/07/26 10:48:45;;;;;;;13.20;11.40;;;;;;;25.56;53.12;98391.75;2169535;81;20949;-79
2022/07/26 10:51:45;;;;;;;12.50;11.20;;;;;;;25.46;53.28;98386.53;2168973;81;20906;-78
2022/07/26 10:54:46;;;;;;;12.98;11.38;;;;;;;25.42;53.37;98395.66;2169168;81;20996;-79
2022/07/26 10:57:46;;;;;;;12.63;11.33;;;;;;;25.35;53.87;98392.47;2169590;81;20919;-78
2022/07/26 11:00:46;;;;;;;11.85;10.78;;;;;;;25.14;54.23;98398.09;2170014;82;21280;-79
2022/07/26 11:03:47;;;;;;;19.05;13.00;;;;;;;24.94;55.16;98392.45;2169730;81;20961;-78
2022/07/26 11:06:52;;;;;;;13.70;11.85;;;;;;;24.75;56.81;98409.45;2168826;81;20957;-78
2022/07/26 11:09:50;;;;;;;17.52;12.63;;;;;;;24.50;56.91;98404.99;2160738;82;21276;-78
2022/07/26 11:12:50;;;;;;;14.83;13.30;;;;;;;24.15;58.68;98418.24;2168927;81;20961;-78
2022/07/26 11:15:50;;;;;;;16.48;14.83;;;;;;;23.92;59.66;98420.31;2168803;82;20925;-78
2022/07/26 11:18:51;;;;;;;15.50;14.10;;;;;;;23.68;61.77;98432.55;2168205;81;20945;-79
2022/07/26 11:21:51;;;;;;;16.70;15.20;;;;;;;23.49;62.33;98424.53;2169079;80;21319;-79
2022/07/26 11:24:52;;;;;;;21.40;16.67;;;;;;;23.32;62.80;98432.42;2168451;81;21044;-80
2022/07/26 11:27:52;;;;;;;20.68;18.17;;;;;;;23.14;64.93;98419.95;2168824;81;20940;-79
2022/07/26 11:30:52;;;;;;;20.92;18.23;;;;;;;22.71;66.97;98421.83;2169259;82;21318;-82
2022/07/26 11:33:53;;;;;;;22.45;20.17;;;;;;;22.35;69.84;98423.39;2169286;82;20885;-81
2022/07/26 11:36:53;;;;;;;22.00;19.87;;;;;;;22.17;71.96;98423.23;2169158;82;20974;-78
2022/07/26 11:39:54;;;;;;;21.42;19.40;;;;;;;22.18;71.95;98422.30;2169506;81;20901;-81
2022/07/26 11:42:54;;;;;;;20.85;18.73;;;;;;;22.30;72.36;98428.03;2169323;81;20956;-80
2022/07/26 11:45:54;;;;;;;18.40;16.45;;;;;;;22.35;72.98;98422.92;2169882;81;20894;-80
2022/07/26 11:48:55;;;;;;;19.45;16.85;;;;;;;22.45;73.39;98432.70;2170004;81;20921;-80
2022/07/26 11:51:55;;;;;;;16.05;14.70;;;;;;;22.45;72.51;98433.56;2169653;81;21380;-81
2022/07/26 11:54:56;;;;;;;15.83;13.90;;;;;;;22.37;73.38;98430.83;2169329;81;20925;-81
2022/07/26 11:57:57;;;;;;;13.78;12.50;;;;;;;22.28;73.57;98439.20;2169217;82;20901;-82
2022/07/26 12:00:56;;;;;;;13.08;11.88;;;;;;;22.21;72.83;98438.13;2169473;82;20953;-81
2022/07/26 12:04:00;;;;;;;11.50;10.60;;;;;;;22.25;73.29;98442.38;2168983;81;21346;-81
2022/07/26 12:07:02;;;;;;;11.50;10.45;;;;;;;22.19;72.38;98443.97;2168182;82;20968;-78
2022/07/26 12:10:00;;;;;;;12.00;10.32;;;;;;;22.07;73.55;98445.80;2167759;81;20909;-78
2022/07/26 12:13:01;;;;;;;11.40;10.28;;;;;;;22.07;73.74;98443.61;2168363;82;21115;-79
2022/07/26 12:16:01;;;;;;;10.53;9.63;;;;;;;22.09;74.06;98443.08;2167592;81;20917;-78
2022/07/26 12:19:02;;;;;;;9.28;8.48;;;;;;;21.92;74.51;98455.69;2167662;81;21012;-79
2022/07/26 12:22:02;;;;;;;9.13;8.40;;;;;;;21.87;73.68;98462.98;2167144;81;20964;-79
2022/07/26 12:25:03;;;;;;;9.80;7.95;;;;;;;21.83;73.40;98457.38;2166493;81;20937;-78
2022/07/26 12:28:05;;;;;;;7.10;6.60;;;;;;;21.68;74.55;98461.97;2166952;81;20964;-78
2022/07/26 12:31:03;;;;;;;7.05;6.42;;;;;;;21.57;74.19;98457.05;2167966;81;20910;-78
2022/07/26 12:34:04;;;;;;;6.22;5.62;;;;;;;21.55;75.05;98465.07;2167440;82;20925;-78
2022/07/26 12:37:04;;;;;;;5.50;5.00;;;;;;;21.39;74.44;98469.23;2167229;82;20945;-77
2022/07/26 12:40:05;;;;;;;5.03;4.65;;;;;;;21.09;76.19;98488.91;2167741;81;21005;-78
2022/07/26 12:43:05;;;;;;;6.00;5.45;;;;;;;20.82;76.76;98484.99;2167866;82;20924;-78
2022/07/26 12:46:05;;;;;;;5.72;5.17;;;;;;;20.67;77.17;98498.75;2168375;81;20950;-78
2022/07/26 12:49:06;;;;;;;5.45;5.00;;;;;;;20.59;77.40;98490.20;2168721;82;21265;-80
2022/07/26 12:52:06;;;;;;;6.50;5.28;;;;;;;20.53;78.23;98500.55;2169273;81;20913;-79
2022/07/26 12:55:07;;;;;;;5.28;4.67;;;;;;;20.53;78.73;98499.22;2169075;81;20886;-79
2022/07/26 12:58:07;;;;;;;6.00;5.40;;;;;;;20.50;79.20;98497.13;2169240;81;21074;-78
2022/07/26 13:01:07;;;;;;;6.95;5.10;;;;;;;20.44;78.92;98505.30;2169826;81;20940;-79
2022/07/26 13:04:08;;;;;;;6.12;5.42;;;;;;;20.60;78.68;98502.53;2169031;81;21024;-78
2022/07/26 13:07:08;;;;;;;5.80;5.30;;;;;;;20.55;78.63;98509.78;2168771;80;20945;-78
2022/07/26 13:10:09;;;;;;;6.37;5.72;;;;;;;20.47;78.13;98518.45;2168996;81;20921;-79
2022/07/26 13:13:09;;;;;;;7.15;6.53;;;;;;;20.39;80.34;98527.08;2168965;81;20918;-78
2022/07/26 13:16:09;;;;;;;8.15;7.35;;;;;;;20.30;79.27;98521.16;2169636;81;20949;-79
2022/07/26 13:19:10;;;;;;;9.78;7.87;;;;;;;20.27;80.23;98526.56;2169390;80;20925;-78
2022/07/26 13:22:10;;;;;;;8.68;7.75;;;;;;;20.16;80.08;98523.39;2168915;81;21400;-79
2022/07/26 13:25:11;;;;;;;8.90;8.00;;;;;;;20.04;81.52;98533.91;2167913;80;20921;-78
2022/07/26 13:28:11;;;;;;;10.53;7.95;;;;;;;20.02;81.08;98540.17;2167186;82;20925;-78
2022/07/26 13:31:11;;;;;;;11.38;8.00;;;;;;;20.01;80.77;98543.28;2166543;81;21394;-78
2022/07/26 13:34:12;;;;;;;9.15;8.25;;;;;;;19.99;81.04;98549.08;2166811;82;21005;-78
2022/07/26 13:37:12;;;;;;;8.15;7.33;;;;;;;19.99;81.37;98551.73;2167042;81;20905;-78
2022/07/26 13:40:13;;;;;;;9.55;8.55;;;;;;;19.97;82.92;98548.72;2167382;81;21379;-77
2022/07/26 13:43:13;;;;;;;9.60;8.70;;;;;;;19.92;82.75;98550.61;2168249;81;20937;-78
2022/07/26 13:46:13;;;;;;;9.50;8.60;;;;;;;19.83;83.80;98545.13;2168904;81;20929;-77
2022/07/26 13:49:14;;;;;;;10.43;9.43;;;;;;;19.89;83.19;98546.27;2168285;81;21710;-76
2022/07/26 13:52:14;;;;;;;12.30;9.80;;;;;;;19.98;83.34;98543.38;2168196;81;20929;-79
2022/07/26 13:55:15;;;;;;;12.47;9.28;;;;;;;20.05;83.31;98538.75;2169103;82;20956;-78
2022/07/26 13:58:15;;;;;;;10.28;8.40;;;;;;;20.11;82.71;98539.89;2170082;80;20981;-78
2022/07/26 14:01:15;;;;;;;9.48;8.68;;;;;;;20.19;83.24;98537.00;2170468;81;20925;-78
2022/07/26 14:04:16;;;;;;;10.50;9.40;;;;;;;20.18;83.05;98537.45;2170460;81;20976;-78